x

9441102 - Westport, Wa (wptw1) Weather Station

1:30 - Thu 30th Jun 2016 All times are PDT. -7 hours from GMT.

  • Wind
    13mph, 14mph gusts
  • Sea Temp 56°f
  • Air Temp 56°f
  • Sea Pressure 1024.9mb
  • 9441102 - Westport, Wa
  • 9441102 - Westport, Wa

More Historic Weather Station data

Upgrade to MSW Pro to gain access to the past 30 days of data for over 8000 Wavebouys and Weather Stations around the globe.

Join Pro

Comparision Forecast

View Surf forecast
   
jeu. 06/30 1:30 13 14 mph 1024.9mb 56f 56f
1:24 14 16 mph 1025mb 56f 56f
1:18 13 14 mph 1025mb 56f 57f
1:12 11 14 mph 1025mb 56f 56f
1:06 11 14 mph 1025.1mb 55f 56f
1:00 13 16 mph 1025.1mb 55f 55f
12:36 14 15 mph 1025.1mb 55f 56f
12:30 14 16 mph 1025.1mb 55f 56f
12:24 13 16 mph 1025mb 55f 56f
12:18 14 20 mph 1025.1mb 55f 57f
12:12 16 20 mph 1025.1mb 55f 57f
12:06 16 20 mph 1025.1mb 54f 57f
12:00 8 13 mph 1025.1mb 54f 56f
11:36 13 16 mph 1025.2mb 53f 56f
11:30 11 18 mph 1025.2mb 52f 56f
11:24 14 15 mph 1025.1mb 52f 56f
11:18 13 15 mph 1025.1mb 52f 56f
11:12 13 15 mph 1025.1mb 52f 56f
11:06 14 15 mph 1025.1mb 52f 55f
11:00 14 16 mph 1025.1mb 52f 55f
10:36 13 15 mph 1025.1mb 52f 55f
10:30 13 15 mph 1025.1mb 52f 55f
10:24 15 16 mph 1025.2mb 51f 55f
10:18 14 16 mph 1025.1mb 52f 55f
10:12 13 16 mph 1025.1mb 52f 55f
10:06 15 18 mph 1025.1mb 53f 55f
10:00 15 21 mph 1025mb 53f 55f
9:36 15 17 mph 1025.1mb 54f 55f
9:30 15 21 mph 1025.1mb 54f 55f
9:24 17 20 mph 1025.1mb 55f 55f
9:18 16 18 mph 1025.1mb 55f 55f
9:12 16 17 mph 1025.1mb 56f 55f
9:06 14 16 mph 1025mb 56f 55f
9:00 13 16 mph 1025mb 56f 54f
8:24 16 20 mph 1025mb 57f 54f
8:18 15 17 mph 1025mb 57f 55f
8:12 14 15 mph 1025mb 57f 55f
8:06 14 17 mph 1025mb 57f 55f
8:00 15 17 mph 1025mb 57f 55f
7:36 14 18 mph 1024.9mb 56f 54f
7:30 15 18 mph 1024.8mb 56f 54f
7:24 13 15 mph 1024.9mb 56f 54f
7:18 14 16 mph 1024.8mb 56f 54f
7:12 14 18 mph 1024.8mb 56f 54f
7:06 17 20 mph 1024.7mb 56f 54f
7:00 16 17 mph 1024.7mb 56f 54f
6:36 13 15 mph 1024.7mb 56f 54f
6:30 13 16 mph 1024.6mb 56f 54f
6:24 14 16 mph 1024.6mb 56f 54f
6:18 14 15 mph 1024.6mb 56f 54f
6:12 13 16 mph 1024.6mb 56f 54f
6:06 14 16 mph 1024.6mb 56f 54f
6:00 14 17 mph 1024.5mb 56f 54f
5:36 14 15 mph 1024.4mb 57f 54f
5:30 13 16 mph 1024.3mb 57f 54f
5:24 13 17 mph 1024.3mb 57f 54f
5:18 14 16 mph 1024.4mb 57f 54f
5:12 14 16 mph 1024.3mb 57f 54f
5:06 14 17 mph 1024.3mb 56f 54f
5:00 14 17 mph 1024.3mb 56f 54f
4:36 13 16 mph 1024.2mb 57f 54f
4:30 14 15 mph 1024.2mb 57f 54f
4:24 13 16 mph 1024.1mb 57f 54f
4:18 13 16 mph 1024.1mb 57f 54f
4:12 13 16 mph 1024.1mb 57f 54f
4:06 14 16 mph 1024mb 57f 54f
4:00 14 17 mph 1024mb 57f 54f
3:36 15 18 mph 1024mb 56f 54f
3:30 16 20 mph 1024mb 56f 54f
3:24 14 18 mph 1024mb 56f 54f
3:18 14 18 mph 1024mb 56f 54f
3:12 14 16 mph 1023.9mb 56f 55f
3:06 13 16 mph 1023.9mb 56f 55f
3:00 14 16 mph 1023.9mb 56f 55f
2:36 18 23 mph 1023.9mb 56f 55f
2:30 18 24 mph 1023.9mb 56f 55f
2:24 17 23 mph 1023.9mb 56f 55f
2:18 18 20 mph 1023.9mb 56f 55f
2:12 16 20 mph 1023.9mb 56f 55f
2:06 18 21 mph 1023.9mb 56f 54f
2:00 16 20 mph 1023.9mb 56f 54f
1:36 16 20 mph 1023.9mb 55f 54f
1:30 15 20 mph 1023.9mb 55f 54f
1:24 16 20 mph 1024mb 55f 54f
1:18 17 20 mph 1023.9mb 55f 54f
1:12 16 18 mph 1023.9mb 55f 54f
1:06 16 21 mph 1023.9mb 55f 54f
1:00 16 18 mph 1023.9mb 55f 54f
12:36 14 17 mph 1024.1mb 55f 55f
12:30 15 17 mph 1024.1mb 55f 55f
12:24 13 16 mph 1024.1mb 55f 54f
12:18 13 16 mph 1024mb 55f 54f
12:12 14 17 mph 1024mb 55f 55f
12:06 14 17 mph 1024.1mb 55f 55f
12:00 13 17 mph 1024.1mb 55f 55f
mer. 06/29 11:36 16 18 mph 1024.2mb 55f 55f
11:30 17 21 mph 1024.2mb 55f 55f
11:24 17 18 mph 1024.2mb 54f 55f
11:18 16 21 mph 1024.2mb 54f 55f
11:12 16 21 mph 1024.2mb 54f 55f
11:06 17 22 mph 1024.2mb 53f 55f
11:00 17 23 mph 1024.2mb 53f 55f
10:36 17 21 mph 1024.2mb 53f 55f
10:30 16 21 mph 1024.2mb 53f 55f
10:24 16 20 mph 1024.2mb 53f 55f
10:18 17 22 mph 1024.3mb 52f 55f
10:12 14 18 mph 1024.3mb 52f 55f
10:06 16 22 mph 1024.2mb 52f 55f
10:00 17 21 mph 1024.2mb 52f 55f
9:36 20 22 mph 1024.1mb 52f 55f
9:30 18 22 mph 1024mb 52f 55f
9:24 16 21 mph 1024mb 52f 55f
9:18 20 25 mph 1024mb 52f 55f
9:12 21 24 mph 1023.9mb 52f 55f
9:06 23 28 mph 1024mb 53f 56f
9:00 22 28 mph 1023.9mb 53f 56f
8:36 17 20 mph 1024mb 53f 56f
8:30 15 20 mph 1024mb 53f 56f
8:24 17 22 mph 1024mb 53f 56f
8:18 15 20 mph 1024mb 53f 56f
8:12 16 18 mph 1024.1mb 54f 56f
8:06 17 22 mph 1024.1mb 54f 56f
8:00 18 23 mph 1024.1mb 54f 56f
7:36 17 22 mph 1024.1mb 55f 56f
7:30 18 23 mph 1024mb 56f 56f
7:24 17 23 mph 1024mb 56f 56f
7:18 17 23 mph 1024mb 56f 56f
7:12 17 23 mph 1024mb 56f 56f
7:06 16 20 mph 1024mb 56f 56f
7:00 17 23 mph 1024mb 56f 56f
6:36 20 23 mph - 56f 57f
6:30 20 23 mph - 57f 57f
6:24 18 24 mph - 57f 57f
6:18 17 22 mph - 57f 57f
6:12 18 25 mph - 57f 57f
6:06 18 23 mph - 57f 57f
6:00 18 21 mph - 57f 57f
5:36  -  mph 1024mb 58f 56f
5:30  -  mph 1024.1mb 58f 56f
5:24  -  mph 1024.1mb 58f 56f
5:18  -  mph 1024.1mb 58f 56f
5:12  -  mph 1024.1mb 58f 56f
5:06  -  mph 1024.3mb 58f 56f
5:00  -  mph 1024.3mb 57f 56f
4:36 16 22 mph 1024.4mb 58f 57f
4:30 17 23 mph 1024.4mb 58f 57f
4:24 21 23 mph 1024.4mb 58f 57f
4:18 18 24 mph 1024.4mb 58f 57f
4:12 17 22 mph 1024.4mb 58f 56f
4:06 17 20 mph 1024.4mb 58f 56f
4:00 17 21 mph 1024.5mb 58f 56f
3:36  -  mph 1024.5mb 57f 56f
3:30  -  mph 1024.6mb 57f 56f
3:24  -  mph 1024.5mb 57f 56f
3:18  -  mph 1024.5mb 58f 56f
3:12  -  mph 1024.5mb 58f 56f
3:06  -  mph 1024.4mb 58f 56f
3:00  -  mph 1024.5mb 58f 56f
2:36 14 18 mph 1024.5mb 58f 57f
2:30 14 16 mph 1024.5mb 58f 57f
2:24 16 20 mph 1024.5mb 58f 57f
2:18 10 16 mph 1024.5mb 58f 57f
2:12 13 15 mph 1024.5mb 58f 57f
2:06 11 15 mph 1024.5mb 58f 56f
2:00 13 16 mph 1024.5mb 58f 57f
1:54 13 16 mph 1024.5mb 58f 56f
1:48 11 17 mph 1024.6mb 58f 56f
1:36 13 15 mph 1024.5mb 58f 56f
1:30 13 18 mph 1024.5mb 58f 56f
1:24 16 20 mph 1024.6mb 58f 56f
1:18 14 17 mph 1024.5mb 58f 56f
1:12 13 20 mph 1024.6mb 58f 56f
1:06 16 18 mph 1024.6mb 58f 56f
1:00 15 21 mph 1024.6mb 58f 56f
12:54 17 21 mph 1024.6mb 58f 56f
12:48 18 22 mph 1024.5mb 58f 56f
12:36 14 20 mph 1024.5mb 57f 56f
12:30 18 22 mph 1024.5mb 57f 56f
12:24 18 23 mph 1024.6mb 57f 56f
12:18 17 20 mph 1024.5mb 57f 56f
12:12 16 18 mph 1024.6mb 57f 56f
12:06 16 22 mph 1024.6mb 57f 56f
12:00 17 21 mph 1024.6mb 57f 56f
11:54 17 21 mph 1024.6mb 57f 56f
11:48 18 22 mph 1024.6mb 57f 56f
11:36 17 20 mph 1024.7mb 56f 55f
11:30 15 17 mph 1024.7mb 56f 55f
11:24 16 18 mph 1024.6mb 56f 55f
11:18 15 20 mph 1024.6mb 56f 55f
11:12 15 20 mph 1024.6mb 56f 55f
11:06 15 18 mph 1024.6mb 56f 55f
11:00 14 17 mph 1024.5mb 56f 55f
10:54 14 17 mph 1024.6mb 56f 55f
10:48 14 17 mph 1024.5mb 56f 55f
10:36 16 17 mph 1024.5mb 55f 55f
10:30 13 16 mph 1024.5mb 55f 55f
10:24 13 15 mph 1024.4mb 55f 55f
10:18 13 15 mph 1024.4mb 54f 55f
10:12 13 15 mph 1024.5mb 54f 55f
10:06 15 20 mph 1024.5mb 54f 55f
10:00 15 17 mph 1024.4mb 54f 55f
9:54 14 17 mph 1024.4mb 54f 55f
9:48 16 17 mph 1024.4mb 54f 55f
9:36 15 20 mph 1024.4mb 55f 55f
9:30 15 18 mph 1024.4mb 55f 55f
9:24 16 20 mph 1024.3mb 55f 55f
9:18 17 20 mph 1024.2mb 55f 55f
9:12 16 20 mph 1024.2mb 55f 55f
9:06 13 17 mph 1024.3mb 55f 55f
9:00 15 17 mph 1024.3mb 55f 55f
8:54 15 18 mph 1024.2mb 55f 55f
8:48 15 18 mph 1024.2mb 55f 55f
8:36 14 17 mph 1024.2mb 55f 55f
8:30 14 17 mph 1024.2mb 55f 55f
8:24 14 18 mph 1024.2mb 56f 55f
8:18 15 17 mph 1024.1mb 56f 55f
8:12 14 17 mph 1024.1mb 56f 55f
8:06 15 17 mph 1024.1mb 56f 55f
8:00 17 20 mph 1024.1mb 56f 55f
7:54 16 18 mph 1024.1mb 56f 54f
7:48 17 20 mph 1024mb 57f 55f
7:36 16 20 mph 1024mb 57f 55f
7:30 18 22 mph 1024mb 57f 55f
7:24 17 21 mph 1024mb 57f 55f
7:18 17 18 mph 1024mb 57f 55f
7:12 16 21 mph 1023.9mb 57f 55f
7:06 17 21 mph 1023.9mb 57f 55f
7:00 20 23 mph 1023.9mb 57f 55f
6:54 18 22 mph 1023.9mb 57f 55f
6:48 17 21 mph 1023.8mb 57f 55f
6:36 14 18 mph 1023.8mb 57f 55f
6:30 14 17 mph 1023.6mb 57f 55f
6:24 15 21 mph 1023.6mb 57f 55f
6:18 16 20 mph 1023.6mb 57f 55f
6:12 16 20 mph 1023.6mb 57f 55f
6:06 15 18 mph 1023.6mb 57f 55f
6:00 18 22 mph 1023.6mb 57f 55f
5:54 15 23 mph 1023.6mb 57f 55f
5:48 21 23 mph 1023.6mb 57f 55f
5:36 20 22 mph 1023.6mb 57f 55f
5:30 16 22 mph 1023.6mb 57f 55f
5:24 15 22 mph 1023.6mb 57f 55f
5:18 18 23 mph 1023.5mb 56f 55f
5:12 15 17 mph 1023.5mb 56f 55f
5:06 15 17 mph 1023.4mb 56f 55f
5:00 17 21 mph 1023.4mb 56f 55f
4:36 16 22 mph 1023.3mb 56f 55f
4:30 16 20 mph 1023.3mb 56f 55f
4:24 15 17 mph 1023.2mb 56f 55f
4:18 15 20 mph 1023.3mb 56f 55f
4:12 14 17 mph 1023.3mb 56f 55f
4:06 14 18 mph 1023.3mb 56f 55f
4:00 16 20 mph 1023.3mb 56f 55f
3:54 16 20 mph 1023.3mb 56f 55f
3:48 15 18 mph 1023.3mb 57f 55f
3:36  -  mph 1023.4mb 57f 55f
3:30  -  mph 1023.4mb 57f 55f
3:24  -  mph 1023.4mb 57f 55f
3:18  -  mph 1023.4mb 57f 54f
3:12  -  mph 1023.4mb 57f 54f
3:06  -  mph 1023.5mb 57f 54f
3:00  -  mph 1023.4mb 57f 54f
2:54  -  mph 1023.4mb 57f 54f
2:48  -  mph 1023.3mb 57f 54f
2:36 14 18 mph 1023.3mb 56f 54f
2:30 14 17 mph 1023.3mb 56f 54f
2:24 14 17 mph 1023.3mb 56f 54f
2:18 13 17 mph 1023.3mb 56f 54f
2:12 14 17 mph 1023.3mb 56f 54f
2:06 14 17 mph 1023.3mb 56f 54f
2:00 14 16 mph 1023.3mb 56f 54f
1:54 13 17 mph 1023.3mb 56f 54f
1:48 14 18 mph 1023.3mb 56f 54f
1:36 14 16 mph 1023.3mb 56f 54f
1:30 14 16 mph 1023.3mb 56f 54f
1:24 14 16 mph 1023.3mb 56f 54f
1:18 14 16 mph 1023.4mb 56f 54f
1:12 15 20 mph 1023.3mb 56f 54f
1:06 11 15 mph 1023.3mb 56f 54f
1:00 16 18 mph 1023.3mb 56f 54f
12:54 14 16 mph 1023.2mb 56f 54f
12:48 14 20 mph 1023.2mb 56f 54f
12:36 14 16 mph 1023.3mb 56f 54f
12:30 13 16 mph 1023.3mb 56f 54f
12:24 14 17 mph 1023.2mb 56f 54f
12:18 11 15 mph 1023.3mb 56f 54f
12:12 13 15 mph 1023.2mb 56f 54f
12:06 13 15 mph 1023.2mb 56f 54f
12:00 14 17 mph 1023.3mb 56f 54f
mar. 06/28 11:54 14 17 mph 1023.3mb 56f 54f
11:48 13 17 mph 1023.3mb 56f 54f
11:36 14 16 mph 1023.3mb 56f 54f
11:30 14 16 mph 1023.3mb 56f 54f
11:24 15 17 mph 1023.4mb 56f 54f
11:18 14 16 mph 1023.4mb 56f 54f
11:12 16 18 mph 1023.4mb 55f 55f
11:06 14 16 mph 1023.4mb 55f 55f
11:00 14 15 mph 1023.4mb 56f 54f
10:54 14 17 mph 1023.5mb 56f 54f
10:48 14 16 mph 1023.5mb 55f 54f
10:36 11 15 mph 1023.5mb 55f 55f
10:30 13 15 mph 1023.5mb 55f 55f
10:24 13 14 mph 1023.5mb 54f 55f
10:18 13 15 mph 1023.6mb 54f 55f
10:12 13 17 mph 1023.6mb 54f 55f
10:06 16 20 mph 1023.5mb 53f 55f
10:00 14 17 mph 1023.6mb 53f 55f
9:54 16 20 mph 1023.5mb 53f 55f
9:48 14 17 mph 1023.5mb 53f 55f
9:36 14 17 mph 1023.5mb 53f 55f
9:30 14 16 mph 1023.4mb 53f 55f
9:24 14 17 mph 1023.4mb 53f 55f
9:18 15 20 mph 1023.5mb 53f 55f
9:12 15 17 mph 1023.4mb 52f 55f
9:06 15 20 mph 1023.4mb 52f 55f
9:00 16 17 mph 1023.4mb 52f 55f
8:54 17 20 mph 1023.4mb 52f 55f
8:48 14 15 mph 1023.5mb 53f 55f
8:36 13 15 mph 1023.5mb 53f 55f
8:30 13 15 mph 1023.5mb 53f 55f
8:24 13 15 mph 1023.4mb 53f 55f
8:18 13 16 mph 1023.4mb 53f 55f
8:12 13 16 mph 1023.4mb 53f 55f
8:06 14 17 mph 1023.4mb 53f 55f
8:00 13 17 mph 1023.4mb 53f 55f
7:54 15 17 mph 1023.4mb 53f 56f
7:48 13 17 mph 1023.4mb 53f 56f
7:36 13 16 mph 1023.3mb 53f 56f
7:30 14 17 mph 1023.3mb 54f 56f
7:24 15 18 mph 1023.3mb 54f 56f
7:18 13 16 mph 1023.3mb 54f 56f
7:12 13 15 mph 1023.3mb 54f 56f
7:06 13 14 mph 1023.3mb 55f 56f
7:00 11 16 mph 1023.3mb 55f 56f
6:54 11 15 mph 1023.3mb 55f 56f
6:48 13 15 mph 1023.3mb 55f 56f
6:36  -  mph 1023.3mb 57f 56f
6:30  -  mph 1023.3mb 57f 56f
6:24  -  mph 1023.4mb 57f 56f
6:18  -  mph 1023.4mb 57f 56f
6:12  -  mph 1023.4mb 57f 56f
6:06  -  mph 1023.5mb 57f 56f
6:00  -  mph 1023.5mb 57f 56f
5:54  -  mph 1023.5mb 57f 56f
5:48  -  mph 1023.4mb 57f 56f
5:36 11 14 mph 1023.5mb 57f 56f
5:30 11 13 mph 1023.5mb 57f 56f
5:24 10 13 mph 1023.5mb 57f 56f
5:18 10 11 mph 1023.6mb 57f 56f
5:12 10 11 mph 1023.7mb 58f 56f
5:06 10 14 mph 1023.7mb 58f 56f
5:00 10 13 mph 1023.8mb 57f 56f
4:54 9 10 mph 1023.8mb 57f 56f
4:48 8 10 mph 1023.9mb 57f 56f
4:36  -  mph 1024mb 57f 56f
4:30  -  mph 1024mb 57f 56f
4:24  -  mph 1023.9mb 57f 57f
4:18  -  mph 1023.9mb 57f 57f
4:12  -  mph 1024mb 57f 57f
4:06  -  mph 1024mb 57f 57f
4:00  -  mph 1024.1mb 57f 57f
3:54  -  mph 1024.1mb 57f 57f
3:48  -  mph 1024.1mb 57f 57f
3:36  -  mph 1024.1mb - 57f
3:30  -  mph 1024.2mb - 57f
3:24  -  mph 1024.2mb - 57f
3:18  -  mph 1024.2mb - 57f
3:12  -  mph 1024.2mb - 57f
3:06  -  mph 1024.2mb - 57f
3:00  -  mph 1024.2mb - 57f
2:54  -  mph 1024.2mb - 56f
2:48  -  mph 1024.3mb - 56f
2:36 6 9 mph 1024.3mb 57f 56f
2:30 7 8 mph 1024.3mb 57f 56f
2:24 7 9 mph 1024.4mb 58f 56f
2:18 7 10 mph 1024.4mb 58f 56f
2:12 7 10 mph 1024.4mb 58f 56f
2:06 7 10 mph 1024.4mb 58f 55f
2:00 7 9 mph 1024.4mb 58f 56f
1:54 7 10 mph 1024.4mb 58f 56f
1:48 6 7 mph 1024.5mb 58f 55f
1:36 7 8 mph 1024.5mb 58f 55f
1:30 7 9 mph 1024.5mb 58f 55f
1:24 7 8 mph 1024.6mb 58f 55f
1:18 6 8 mph 1024.5mb 58f 55f
1:12 7 9 mph 1024.5mb 58f 55f
1:06 7 9 mph 1024.5mb 58f 56f
1:00 8 9 mph 1024.5mb 58f 56f
12:54 7 8 mph 1024.5mb 58f 56f
12:48 7 9 mph 1024.6mb 58f 56f
12:36 6 8 mph 1024.7mb 58f 56f
12:30 6 7 mph 1024.7mb 58f 56f
12:24 7
mph
1024.7mb 58f 56f
12:18 6 7 mph 1024.7mb 58f 56f
12:12 6 7 mph 1024.7mb 58f 55f
12:06 6 7 mph 1024.8mb 58f 55f
12:00 6 7 mph 1024.8mb 58f 55f
11:54 6 7 mph 1024.8mb 58f 55f
11:48 7
mph
1024.8mb 58f 55f
11:36 7 8 mph 1024.8mb 58f 55f
11:30 7
mph
1024.8mb 58f 55f
11:24 6 7 mph 1024.8mb 58f 55f
11:18 7 8 mph 1024.8mb 58f 55f
11:12 7 8 mph 1024.8mb 58f 55f
11:06 6 7 mph 1024.7mb 58f 55f
11:00 6 7 mph 1024.7mb 58f 55f
10:54 7 9 mph 1024.6mb 58f 55f
10:48 8 9 mph 1024.5mb 58f 54f
10:36 8 10 mph 1024.6mb 57f 54f
10:30 9 11 mph 1024.6mb 57f 54f
10:24 10 11 mph 1024.6mb 57f 54f
10:18 10 11 mph 1024.6mb 57f 54f
10:12 10 11 mph 1024.6mb 56f 54f
10:06 10 13 mph 1024.6mb 56f 53f
10:00 10 15 mph 1024.6mb 56f 53f
9:54 11 13 mph 1024.6mb 56f 53f
9:48 7 8 mph 1024.7mb 56f 53f
9:36 9 10 mph 1024.7mb 56f 53f
9:30 9 10 mph 1024.6mb 56f 53f
9:24 8 10 mph 1024.6mb 56f 53f
9:18 9 10 mph 1024.6mb 55f 53f
9:12 8 9 mph 1024.6mb 55f 53f
9:06 7 9 mph 1024.6mb 55f 53f
9:00 8 10 mph 1024.5mb 54f 54f
8:54 10 11 mph 1024.4mb 54f 53f
8:48 10 13 mph 1024.3mb 55f 54f
8:36 8 10 mph 1024.3mb 55f 53f
8:30 9 11 mph 1024.2mb 54f 53f
8:24 9
mph
1024.2mb 54f 53f
8:18 10 11 mph 1024.3mb 54f 53f
8:12 9 10 mph 1024.2mb 54f 53f
8:06 8 9 mph 1024.2mb 55f 53f
8:00 9 10 mph 1024.2mb 55f 53f
7:54 7 9 mph 1024.2mb 55f 53f
7:48 9
mph
1024.2mb 55f 53f
7:36 8 10 mph 1024.2mb 55f 53f
7:30 8 9 mph 1024.2mb 55f 53f
7:24 9 10 mph 1024.2mb 55f 53f
7:18 8 9 mph 1024.2mb 55f 53f
7:12 9 10 mph 1024.3mb 56f 53f
7:06 9 10 mph 1024.2mb 56f 53f
7:00 9 10 mph 1024.2mb 56f 53f
6:54 8 10 mph 1024.1mb 56f 53f
6:48 9 11 mph 1024.2mb 56f 53f
6:36 8 9 mph 1024.2mb 56f 53f
6:30 9 10 mph 1024.2mb 56f 53f
6:24 8 9 mph 1024.2mb 56f 53f
6:18 9 10 mph 1024.2mb 57f 53f
6:12 9 10 mph 1024.1mb 57f 53f
6:06 8 10 mph 1024mb 57f 53f
6:00 8 9 mph 1024mb 57f 53f
5:54 8 9 mph 1023.9mb 57f 53f
5:48 9 10 mph 1024mb 57f 53f
5:36 9 11 mph 1023.9mb 57f 53f
5:30 9 10 mph 1024mb 57f 53f
5:24 8 10 mph 1023.9mb 57f 53f
5:18 8 10 mph 1023.8mb 57f 53f
5:12 8 10 mph 1023.8mb 57f 53f
5:06 9 10 mph 1023.8mb 57f 53f
5:00 9 11 mph 1023.8mb 57f 53f
4:54 11 13 mph 1023.8mb 58f 53f
4:48 11 13 mph 1023.7mb 58f 53f
4:36 11 13 mph 1023.6mb 58f 54f
4:30 10 14 mph 1023.6mb 58f 54f
4:24 10 13 mph 1023.7mb 58f 54f
4:18 10 13 mph 1023.6mb 58f 54f
4:12 11 14 mph 1023.7mb 57f 54f
4:06 11 13 mph 1023.7mb 57f 54f
4:00 10 11 mph 1023.7mb 57f 54f
3:54 10 14 mph 1023.7mb 57f 54f
3:48 11 14 mph 1023.8mb 57f 54f
3:36 10 13 mph 1023.8mb 57f 55f
3:30 10 11 mph 1023.9mb 58f 55f
3:24 13 14 mph 1023.9mb 58f 55f
3:18 14 16 mph 1023.9mb 57f 55f
3:12 15 20 mph 1023.9mb 57f 55f
3:06 16 20 mph 1023.8mb 57f 55f
3:00 13 16 mph 1023.8mb 57f 55f
2:54 14 15 mph 1023.9mb 57f 55f
2:48 13 16 mph 1023.9mb 57f 55f
2:36 15 16 mph 1024mb 57f 55f
2:30 13 15 mph 1023.9mb 57f 55f
2:24 13 17 mph 1023.9mb 58f 55f
2:18 14 16 mph 1023.9mb 58f 55f
2:12 14 15 mph 1023.9mb 58f 55f
2:06 10 15 mph 1023.8mb 58f 55f
2:00 11 14 mph 1023.9mb 58f 55f
1:54 11 16 mph 1023.9mb 58f 55f
1:48 14 21 mph 1023.9mb 58f 55f
1:36 14 16 mph 1023.9mb 57f 55f
1:30 13 16 mph 1023.9mb 57f 55f
1:24 14 16 mph 1023.9mb 57f 55f
1:18 13 15 mph 1023.9mb 57f 55f
1:12 14 16 mph 1023.9mb 57f 55f
1:06 14 17 mph 1023.9mb 57f 55f
1:00 16 18 mph 1023.9mb 57f 55f
12:54 15 17 mph 1023.9mb 57f 55f
12:48 15 17 mph 1024mb 57f 55f
12:36 16 17 mph 1023.9mb 57f 55f
12:30 14 16 mph 1023.9mb 57f 55f
12:24 13 16 mph 1023.9mb 57f 55f
12:18 14 18 mph 1024mb 57f 55f
12:12 14 18 mph 1023.9mb 57f 55f
12:06 16 20 mph 1024mb 57f 55f
12:00 11 14 mph 1023.9mb 57f 55f
lun. 06/27 11:54 11 13 mph 1023.9mb 57f 55f
11:48 11 14 mph 1023.9mb 57f 55f
11:36 13 15 mph 1023.9mb 57f 54f
11:30 11 13 mph 1023.9mb 57f 54f
11:24 11 14 mph 1024mb 57f 54f
11:18 14 15 mph 1024mb 57f 54f
11:12 10 14 mph 1024mb 57f 54f
11:06 11 16 mph 1024.1mb 57f 54f
11:00 13 14 mph 1024.1mb 57f 54f
10:54 13 16 mph 1024.1mb 57f 54f
10:48 11 14 mph 1024.1mb 57f 54f
10:36 11 13 mph 1024.2mb 57f 54f
10:30 10 13 mph 1024.2mb 57f 54f
10:24 14 15 mph 1024.3mb 56f 54f
10:18 13 15 mph 1024.2mb 56f 54f
10:12 16 18 mph 1024.2mb 56f 55f
10:06 13 16 mph 1024.2mb 56f 55f
10:00 15 17 mph 1024.2mb 56f 55f
9:54 13 14 mph 1024.2mb 56f 55f
9:48 13 15 mph 1024.1mb 56f 55f
9:36 14 16 mph 1024mb 55f 55f
9:30 14 20 mph 1024mb 55f 55f
9:24 16 21 mph 1023.9mb 54f 55f
9:18 17 20 mph 1023.8mb 54f 55f
9:12 14 15 mph 1023.8mb 53f 55f
9:06 14 16 mph 1023.8mb 53f 55f
9:00 15 16 mph 1023.7mb 53f 55f
8:54 13 17 mph 1023.7mb 52f 55f
8:48 13 14 mph 1023.7mb 52f 55f
8:36 14 17 mph 1023.7mb 52f 55f
8:30 15 17 mph 1023.8mb 51f 55f
8:24 14 16 mph 1023.8mb 51f 55f
8:18 14 16 mph 1023.8mb 51f 55f
8:12 15 17 mph 1023.8mb 51f 55f
8:06 15 17 mph 1023.8mb 51f 55f
8:00 14 20 mph 1023.8mb 51f 55f
7:54 18 21 mph 1023.8mb 51f 55f
7:48 13 17 mph 1023.8mb 51f 55f
7:36 13 14 mph 1023.8mb 51f 56f
7:30 14 16 mph 1023.8mb 51f 56f
7:24 15 18 mph 1023.8mb 51f 56f
7:18 15 16 mph 1023.8mb 51f 56f
7:12 15 18 mph 1023.7mb 51f 56f
7:06 14 16 mph 1023.7mb 52f 56f
7:00 15 18 mph 1023.6mb 52f 56f
6:54 16 18 mph 1023.6mb 52f 56f
6:48 15 18 mph 1023.6mb 52f 56f
6:36 16 17 mph 1023.6mb 53f 56f
6:30 15 17 mph 1023.6mb 53f 56f
6:24 13 17 mph 1023.6mb 54f 56f
6:18 14 17 mph 1023.6mb 54f 56f
6:12 14 15 mph 1023.7mb 55f 56f
6:06 13 18 mph 1023.7mb 55f 56f
6:00 16 18 mph 1023.7mb 55f 56f
5:54 13 15 mph 1023.8mb 56f 56f
5:48 13 16 mph 1023.9mb 56f 56f
5:36 11 14 mph 1023.9mb 57f 56f
5:30 13 15 mph 1023.9mb 58f 56f
5:24 13 16 mph 1023.9mb 58f 56f
5:18 13 14 mph 1024mb 58f 56f
5:12 11 14 mph 1024mb 58f 56f
5:06 13 15 mph 1024mb 58f 56f
5:00 13 15 mph 1024mb 58f 57f
4:54 13 15 mph 1024.1mb 58f 57f
4:48 14 15 mph 1024.1mb 58f 57f
4:36  -  mph 1024.1mb 59f 57f
4:30  -  mph 1024.1mb 59f 57f
4:24  -  mph 1024.1mb 59f 57f
4:18  -  mph 1024.1mb 60f 57f
4:12  -  mph 1024.1mb 60f 57f
4:06  -  mph 1024.2mb 60f 57f
4:00  -  mph 1024.1mb 60f 57f
3:54  -  mph 1024.1mb 60f 58f
3:48  -  mph 1024.1mb 60f 58f
3:36  -  mph 1024.1mb 59f 58f
3:30  -  mph 1024mb 59f 58f
3:24  -  mph 1024mb 59f 58f
3:18  -  mph 1024mb 59f 58f
3:12  -  mph 1024mb 59f 58f
3:06  -  mph 1023.9mb 59f 58f
3:00  -  mph 1023.9mb 59f 58f
2:54  -  mph 1024mb 59f 58f
2:48  -  mph 1024mb 59f 58f
2:36 9 10 mph 1024mb 59f 58f
2:30 10 11 mph 1024mb 59f 58f
2:24 8 10 mph 1024mb 59f 58f
2:18 8 9 mph 1024mb 60f 58f
2:12 8 10 mph 1024mb 60f 58f
2:06 8 9 mph 1024mb 60f 58f
2:00 9 11 mph 1024.1mb 60f 58f
1:54 8 11 mph 1024mb 60f 58f
1:48 8 10 mph 1024mb 60f 58f
1:36 9 11 mph 1024mb 60f 58f
1:30 9 11 mph 1024.1mb 60f 58f
1:24 8 11 mph 1024.1mb 60f 58f
1:18 11 13 mph 1024.1mb 60f 58f
1:12 9 11 mph 1024.1mb 60f 58f
1:06 10 13 mph 1024.1mb 60f 57f
1:00 10 11 mph 1024.1mb 60f 57f
12:54 9 10 mph 1024mb 60f 57f
12:48 10 11 mph 1024mb 60f 57f
12:36 9 11 mph 1024mb 60f 57f
12:30 10 13 mph 1024mb 60f 57f
12:24 11 13 mph 1023.9mb 60f 57f
12:18 10 13 mph 1024mb 60f 57f
12:12 11 13 mph 1024mb 60f 56f
12:06 13 14 mph 1024mb 60f 56f
12:00 10 13 mph 1023.9mb 60f 56f
11:54 11 13 mph 1023.8mb 60f 56f
11:48 10 13 mph 1023.7mb 60f 56f
11:36 9 11 mph 1023.8mb 60f 56f
11:30 10 13 mph 1023.7mb 60f 56f
11:24 8 10 mph 1023.7mb 60f 56f
11:18 8 14 mph 1023.8mb 60f 56f
11:12 8 11 mph 1023.7mb 60f 56f
11:06 10 11 mph 1023.7mb 60f 55f
11:00 10 13 mph 1023.7mb 60f 56f
10:54 9 13 mph 1023.7mb 60f 55f
10:48 9 11 mph 1023.6mb 60f 56f
10:36 11 14 mph 1023.5mb 59f 55f
10:30 11 15 mph 1023.4mb 59f 55f
10:24 13 15 mph 1023.4mb 59f 55f
10:18 13 14 mph 1023.3mb 59f 55f
10:12 11 14 mph 1023.3mb 59f 55f
10:06 13 16 mph 1023.3mb 59f 55f
10:00 14 16 mph 1023.3mb 59f 55f
9:54 14 16 mph 1023.2mb 59f 55f
9:48 14 16 mph 1023.2mb 59f 55f
9:36 10 13 mph 1023.3mb 59f 55f
9:30 11 14 mph 1023.3mb 59f 55f
9:24 11 14 mph 1023.2mb 59f 55f
9:18 11 14 mph 1023.2mb 59f 55f
9:12 11 13 mph 1023.2mb 59f 54f
9:06 8 11 mph 1023.2mb 59f 54f
9:00 10 15 mph 1023.2mb 59f 54f
8:54 10 11 mph 1023.1mb 58f 54f
8:48 11 13 mph 1023.1mb 58f 54f
8:36 11 15 mph 1023mb 58f 54f
8:30 11 14 mph 1023mb 58f 54f
8:24 11 14 mph 1023mb 58f 54f
8:18 11 16 mph 1022.9mb 58f 54f
8:12 14 15 mph 1022.9mb 58f 54f
8:06 9 14 mph 1022.9mb 58f 54f
8:00 13 16 mph 1022.9mb 58f 54f
7:54 16 17 mph 1022.8mb 57f 54f
7:48 13 16 mph 1022.7mb 56f 54f
7:36 13 16 mph 1022.7mb 55f 54f
7:30 11 15 mph 1022.7mb 55f 54f
7:24 13 16 mph 1022.6mb 55f 54f
7:18 14 15 mph 1022.6mb 55f 54f
7:12 13 17 mph 1022.7mb 55f 54f
7:06 15 18 mph 1022.7mb 55f 54f
7:00 16 20 mph 1022.6mb 55f 54f
6:54 11 16 mph 1022.5mb 56f 53f
6:48 16 18 mph 1022.5mb 56f 54f
6:36 14 21 mph 1022.3mb 56f 54f
6:30 15 17 mph 1022.3mb 55f 54f
6:24 15 17 mph 1022.2mb 55f 54f
6:18 14 16 mph 1022.2mb 56f 54f
6:12 14 16 mph 1022.1mb 56f 54f
6:06 14 16 mph 1022.1mb 57f 54f
6:00 10 17 mph 1022mb 57f 53f
5:54 13 16 mph 1021.9mb 58f 53f
5:48 14 16 mph 1021.8mb 58f 53f
5:36 14 17 mph 1021.7mb 58f 53f
5:30 14 20 mph 1021.7mb 58f 53f
5:24 16 18 mph 1021.7mb 58f 53f
5:18 15 18 mph 1021.7mb 58f 53f
5:12 16 20 mph 1021.6mb 58f 53f
5:06 15 17 mph 1021.5mb 58f 53f
5:00 14 20 mph 1021.5mb 58f 53f
4:54 16 21 mph 1021.5mb 58f 53f
4:48 18 21 mph 1021.4mb 59f 53f
4:36 20 22 mph 1021.4mb 59f 53f
4:30 14 21 mph 1021.4mb 59f 53f
4:24 17 21 mph 1021.3mb 59f 53f
4:18 18 22 mph 1021.3mb 60f 53f
4:12 17 22 mph 1021.3mb 60f 53f
4:06 18 22 mph 1021.3mb 60f 53f
4:00 18 21 mph 1021.3mb 60f 54f
3:54 17 22 mph 1021.2mb 61f 54f
3:48 16 21 mph 1021.1mb 61f 54f
3:36 16 22 mph 1021.2mb 61f 55f
3:30 18 23 mph 1021.1mb 61f 55f
3:24 18 23 mph 1021.1mb 61f 55f
3:18 18 22 mph 1021.1mb 61f 55f
3:12 18 22 mph 1021mb 61f 55f
3:06 18 21 mph 1020.9mb 61f 55f
3:00 18 22 mph 1020.9mb 61f 55f
2:54 18 22 mph 1020.9mb 61f 55f
2:48 17 22 mph 1020.9mb 61f 55f
2:36 16 20 mph 1020.9mb 61f 55f
2:30 16 20 mph 1020.9mb 60f 55f
2:24 17 20 mph 1020.9mb 60f 55f
2:18 14 18 mph 1020.9mb 60f 55f
2:12 15 18 mph 1020.9mb 60f 55f
2:06 15 18 mph 1020.8mb 60f 55f
2:00 16 17 mph 1020.8mb 60f 55f
1:54 16 18 mph 1020.7mb 60f 55f
1:48 15 21 mph 1020.7mb 60f 55f
1:36 16 18 mph 1020.7mb 60f 56f
1:30 17 18 mph 1020.7mb 60f 56f
1:24 15 17 mph 1020.7mb 61f 56f
1:18 14 17 mph 1020.7mb 61f 56f
1:12 13 17 mph 1020.8mb 61f 56f
1:06 15 18 mph 1020.8mb 61f 56f
1:00 14 17 mph 1020.7mb 61f 56f
12:54 13 15 mph 1020.7mb 61f 56f
12:48 13 16 mph 1020.7mb 61f 56f
12:36 11 14 mph 1020.7mb 61f 56f
12:30 11 18 mph 1020.8mb 61f 56f
12:24 15 17 mph 1020.7mb 61f 56f
12:18 14 16 mph 1020.7mb 61f 56f
12:12 16 18 mph 1020.7mb 61f 56f
12:06 14 16 mph 1020.7mb 61f 56f
12:00 14 18 mph 1020.8mb 61f 56f
dim. 06/26 11:54 14 17 mph 1020.8mb 61f 56f
11:48 14 16 mph 1020.8mb 60f 56f
11:36 14 15 mph 1020.8mb 60f 56f
11:30 13 17 mph 1020.7mb 60f 56f
11:24 11 17 mph 1020.8mb 60f 56f
11:18 14 20 mph 1020.8mb 60f 56f
11:12 14 17 mph 1020.8mb 60f 56f
11:06 11 14 mph 1020.8mb 60f 56f
11:00 9 13 mph 1020.8mb 60f 56f
10:54 9 14 mph 1020.8mb 60f 56f
10:48 6 11 mph 1020.9mb 60f 56f
10:36 10 18 mph 1020.9mb 61f 57f
10:30 11 16 mph 1020.8mb 61f 57f
10:24 10 15 mph 1020.8mb 61f 56f
10:18 13 16 mph 1020.7mb 61f 56f
10:12 13 16 mph 1020.7mb 61f 56f
10:06 15 20 mph 1020.6mb 61f 56f
10:00 15 20 mph 1020.6mb 61f 56f
9:54 17 18 mph 1020.6mb 61f 56f
9:48 16 21 mph 1020.5mb 61f 56f
9:36 17 22 mph 1020.3mb 61f 56f
9:30 17 21 mph 1020.2mb 61f 56f